Time;durP1;ratioP1;P1;durP2;ratioP2;P2;SDS_P1;SDS_P2;PMS_P1;PMS_P2;Temp;Humidity;BMP_temperature;BMP_pressure;BME280_temperature;BME280_humidity;BME280_pressure;Samples;Min_cycle;Max_cycle;Signal;HPM_P1;HPM_P2
2021/11/03 00:00:42;;;;;;;5.85;5.25;;;6.20;99.90;;;;;;5041793;28;20021;-75
2021/11/03 00:03:08;;;;;;;5.68;5.07;;;6.10;99.90;;;;;;5046405;28;20028;-75
2021/11/03 00:05:34;;;;;;;5.10;4.40;;;6.10;99.90;;;;;;5040471;28;20027;-75
2021/11/03 00:08:01;;;;;;;5.75;5.15;;;6.10;99.90;;;;;;5046187;28;20096;-76
2021/11/03 00:10:26;;;;;;;6.40;5.07;;;6.10;99.90;;;;;;5042916;28;20022;-75
2021/11/03 00:12:52;;;;;;;5.40;4.80;;;6.10;99.90;;;;;;5048028;28;20095;-75
2021/11/03 00:15:18;;;;;;;5.63;4.72;;;6.00;99.90;;;;;;5045043;28;20117;-75
2021/11/03 00:17:44;;;;;;;5.53;4.38;;;6.00;99.90;;;;;;5045102;28;20032;-75
2021/11/03 00:20:12;;;;;;;6.43;4.38;;;6.00;99.90;;;;;;5043664;28;20036;-75
2021/11/03 00:22:38;;;;;;;6.32;4.30;;;6.00;99.90;;;;;;5048435;28;20026;-75
2021/11/03 00:25:06;;;;;;;4.60;4.18;;;6.00;99.90;;;;;;5041292;28;20028;-75
2021/11/03 00:27:31;;;;;;;6.28;3.90;;;5.90;99.90;;;;;;5049100;28;20031;-75
2021/11/03 00:29:57;;;;;;;4.45;4.05;;;5.90;99.90;;;;;;5042401;28;20411;-75
2021/11/03 00:32:22;;;;;;;4.75;3.88;;;5.90;99.90;;;;;;5048608;28;20130;-74
2021/11/03 00:34:48;;;;;;;6.25;4.32;;;5.90;99.90;;;;;;5047688;28;20523;-75
2021/11/03 00:37:14;;;;;;;4.18;3.78;;;5.90;99.90;;;;;;5046927;28;20544;-75
2021/11/03 00:39:40;;;;;;;4.25;3.80;;;5.80;99.90;;;;;;5039246;28;20387;-75
2021/11/03 00:42:06;;;;;;;3.58;3.17;;;5.80;99.90;;;;;;5044122;28;20100;-74
2021/11/03 00:44:31;;;;;;;4.72;3.45;;;5.80;99.90;;;;;;5040038;28;20401;-74
2021/11/03 00:46:57;;;;;;;5.15;4.00;;;5.80;99.90;;;;;;5042256;28;20021;-74
2021/11/03 00:49:23;;;;;;;4.82;3.42;;;5.60;99.90;;;;;;5043733;28;20026;-74
2021/11/03 00:51:48;;;;;;;5.00;3.97;;;5.30;99.90;;;;;;5041451;28;20056;-75
2021/11/03 00:54:14;;;;;;;7.15;4.40;;;5.30;99.90;;;;;;5044160;28;20087;-75
2021/11/03 00:56:39;;;;;;;4.10;3.70;;;5.20;99.90;;;;;;5038346;28;20029;-74
2021/11/03 00:59:05;;;;;;;6.38;4.40;;;5.30;99.90;;;;;;5038701;28;20057;-75
2021/11/03 01:01:31;;;;;;;7.63;5.15;;;5.20;99.90;;;;;;5033230;28;20551;-75
2021/11/03 01:03:57;;;;;;;5.28;4.30;;;5.40;99.90;;;;;;5040502;28;20108;-75
2021/11/03 01:06:23;;;;;;;6.05;5.10;;;5.40;99.90;;;;;;5048916;28;20103;-75
2021/11/03 01:08:49;;;;;;;7.38;5.18;;;5.40;99.90;;;;;;5041598;28;20025;-73
2021/11/03 01:11:14;;;;;;;6.35;5.45;;;5.10;99.90;;;;;;5041132;28;20489;-74
2021/11/03 01:13:40;;;;;;;7.50;6.13;;;4.90;99.90;;;;;;5037236;28;20036;-74
2021/11/03 01:16:06;;;;;;;5.53;4.80;;;4.90;99.90;;;;;;5046413;28;20108;-74
2021/11/03 01:18:33;;;;;;;7.20;5.63;;;5.00;99.90;;;;;;5043654;28;20151;-74
2021/11/03 01:21:00;;;;;;;6.80;5.15;;;5.10;99.90;;;;;;5044715;28;20394;-74
2021/11/03 01:23:27;;;;;;;5.78;5.18;;;5.20;99.90;;;;;;5041249;28;20025;-74
2021/11/03 01:25:53;;;;;;;7.45;5.97;;;5.30;99.90;;;;;;5044835;28;20028;-74
2021/11/03 01:28:20;;;;;;;9.13;6.50;;;5.10;99.90;;;;;;5043102;28;20510;-76
2021/11/03 01:30:46;;;;;;;11.70;7.32;;;5.00;99.90;;;;;;5044783;28;20406;-75
2021/11/03 01:33:14;;;;;;;7.20;5.88;;;4.80;99.90;;;;;;5042141;28;20025;-75
2021/11/03 01:35:40;;;;;;;8.48;6.03;;;4.90;99.90;;;;;;5044706;28;20028;-75
2021/11/03 01:38:06;;;;;;;8.35;7.13;;;4.90;99.90;;;;;;5042647;28;20486;-75
2021/11/03 01:40:34;;;;;;;15.27;9.55;;;5.00;99.90;;;;;;5043725;28;20064;-75
2021/11/03 01:43:00;;;;;;;15.73;11.43;;;5.20;99.90;;;;;;5034382;28;20029;-75
2021/11/03 01:45:27;;;;;;;14.88;12.45;;;5.30;99.90;;;;;;5045568;28;20032;-75
2021/11/03 01:47:56;;;;;;;13.63;11.32;;;5.40;99.90;;;;;;5046602;28;20049;-75
2021/11/03 01:50:47;;;;;;;15.98;11.70;;;5.40;99.90;;;;;;5036354;28;20104;-75
2021/11/03 01:53:18;;;;;;;14.57;11.73;;;5.50;99.90;;;;;;5046965;28;20483;-75
2021/11/03 01:55:52;;;;;;;13.30;10.50;;;5.50;99.90;;;;;;5044270;28;20029;-75
2021/11/03 01:58:22;;;;;;;12.45;9.32;;;5.60;99.90;;;;;;5042828;28;20017;-74
2021/11/03 02:00:52;;;;;;;12.98;10.27;;;5.70;99.90;;;;;;5038435;28;20029;-74
2021/11/03 02:03:22;;;;;;;9.20;7.80;;;5.70;99.90;;;;;;5033788;28;20017;-75
2021/11/03 02:05:53;;;;;;;8.35;7.18;;;5.70;99.90;;;;;;5042049;28;20021;-75
2021/11/03 02:08:20;;;;;;;10.32;7.63;;;5.80;99.90;;;;;;5041850;28;20017;-73
2021/11/03 02:10:46;;;;;;;8.73;7.53;;;5.80;99.90;;;;;;5043734;28;20047;-74
2021/11/03 02:13:14;;;;;;;9.25;6.80;;;5.80;99.90;;;;;;5040860;28;20025;-74
2021/11/03 02:15:41;;;;;;;8.73;6.28;;;5.90;99.90;;;;;;5043879;28;20021;-75
2021/11/03 02:18:09;;;;;;;7.55;6.65;;;5.90;99.90;;;;;;5040922;28;20095;-74
2021/11/03 02:20:34;;;;;;;7.82;7.03;;;5.90;99.90;;;;;;5029927;28;20024;-75
2021/11/03 02:23:17;;;;;;;8.00;7.03;;;6.00;99.90;;;;;;5043979;28;20029;-74
2021/11/03 02:25:49;;;;;;;8.10;6.93;;;5.90;99.90;;;;;;5030947;28;20036;-74
2021/11/03 02:28:16;;;;;;;7.90;7.10;;;6.00;99.90;;;;;;5041176;28;20033;-74
2021/11/03 02:30:42;;;;;;;8.40;7.10;;;6.00;99.90;;;;;;5047034;28;20009;-74
2021/11/03 02:33:14;;;;;;;7.88;7.07;;;6.10;99.90;;;;;;5040314;28;20546;-74
2021/11/03 02:35:40;;;;;;;8.77;7.13;;;6.10;99.90;;;;;;5044743;28;20041;-74
2021/11/03 02:38:07;;;;;;;8.32;7.53;;;6.10;99.90;;;;;;5040386;28;20029;-74
2021/11/03 02:40:44;;;;;;;9.32;7.55;;;6.10;99.90;;;;;;5035808;28;20021;-75
2021/11/03 02:43:15;;;;;;;7.63;6.82;;;6.10;99.90;;;;;;5037225;28;20163;-74
2021/11/03 02:45:46;;;;;;;7.32;6.63;;;6.20;99.90;;;;;;5044771;28;20022;-74
2021/11/03 02:48:12;;;;;;;7.82;6.63;;;6.20;99.90;;;;;;5048449;28;20028;-74
2021/11/03 02:50:52;;;;;;;7.10;6.40;;;6.20;99.90;;;;;;5028898;28;20025;-75
2021/11/03 02:53:17;;;;;;;9.45;7.28;;;6.30;99.90;;;;;;5022904;28;20033;-75
2021/11/03 02:55:43;;;;;;;6.93;6.22;;;6.20;99.90;;;;;;5027139;28;20083;-74
2021/11/03 02:58:08;;;;;;;7.30;6.53;;;6.20;99.90;;;;;;5023086;28;20025;-76
2021/11/03 03:00:34;;;;;;;7.00;5.78;;;6.30;99.90;;;;;;5030134;28;20026;-75
2021/11/03 03:02:59;;;;;;;6.97;5.82;;;6.30;99.90;;;;;;5029515;28;20503;-75
2021/11/03 03:05:25;;;;;;;6.53;5.80;;;6.30;99.90;;;;;;5031593;28;20515;-75
2021/11/03 03:07:50;;;;;;;6.93;5.63;;;6.30;99.90;;;;;;5030396;28;20060;-74
2021/11/03 03:10:16;;;;;;;6.45;5.43;;;6.30;99.90;;;;;;5030839;28;20633;-74
2021/11/03 03:12:42;;;;;;;6.20;5.28;;;6.30;99.90;;;;;;5031413;28;20030;-74
2021/11/03 03:15:08;;;;;;;7.95;5.60;;;6.30;99.90;;;;;;5016954;28;20506;-74
2021/11/03 03:17:34;;;;;;;6.75;5.57;;;6.20;99.90;;;;;;5018896;28;20029;-74
2021/11/03 03:19:59;;;;;;;6.38;5.35;;;6.20;99.90;;;;;;5028097;28;20116;-74
2021/11/03 03:22:25;;;;;;;7.97;5.80;;;6.20;99.90;;;;;;5019011;28;20230;-74
2021/11/03 03:24:51;;;;;;;6.28;5.68;;;6.20;99.90;;;;;;5016123;28;20029;-74
2021/11/03 03:27:17;;;;;;;8.73;6.15;;;6.20;99.90;;;;;;5020442;28;20030;-74
2021/11/03 03:29:43;;;;;;;6.60;5.70;;;6.20;99.90;;;;;;5024947;28;20045;-74
2021/11/03 03:32:09;;;;;;;8.20;6.25;;;6.10;99.90;;;;;;5021185;28;20083;-75
2021/11/03 03:34:34;;;;;;;7.38;6.10;;;6.20;99.90;;;;;;5025353;28;20173;-75
2021/11/03 03:37:00;;;;;;;7.15;6.20;;;6.10;99.90;;;;;;5022734;28;20447;-75
2021/11/03 03:39:26;;;;;;;8.00;6.55;;;6.10;99.90;;;;;;5023357;28;20489;-75
2021/11/03 03:41:58;;;;;;;6.97;6.18;;;6.00;99.90;;;;;;5019494;28;20030;-75
2021/11/03 03:44:25;;;;;;;6.68;5.95;;;6.00;99.90;;;;;;5029197;28;20021;-75
2021/11/03 03:46:50;;;;;;;6.93;6.32;;;5.90;99.90;;;;;;5031922;28;20025;-74
2021/11/03 03:49:16;;;;;;;6.90;6.20;;;6.00;99.90;;;;;;5026510;28;20026;-73
2021/11/03 03:51:41;;;;;;;7.05;6.35;;;6.00;99.90;;;;;;5027439;28;20411;-73
2021/11/03 03:54:07;;;;;;;7.32;5.95;;;6.30;99.90;;;;;;5035563;28;20033;-73
2021/11/03 03:56:33;;;;;;;7.45;6.70;;;6.00;99.90;;;;;;5025630;28;20500;-73
2021/11/03 03:58:58;;;;;;;7.68;6.38;;;6.00;99.90;;;;;;5020661;28;20056;-73
2021/11/03 04:01:26;;;;;;;7.30;6.60;;;6.00;99.90;;;;;;5023766;28;20439;-74
2021/11/03 04:03:53;;;;;;;7.20;6.45;;;6.00;99.90;;;;;;5028132;28;20022;-73
2021/11/03 04:06:18;;;;;;;7.47;6.60;;;5.90;99.90;;;;;;5014045;28;20069;-73
2021/11/03 04:08:44;;;;;;;9.18;6.80;;;5.90;99.90;;;;;;5032924;28;20040;-73
2021/11/03 04:11:10;;;;;;;7.97;6.82;;;5.90;99.90;;;;;;5033782;28;20520;-74
2021/11/03 04:13:36;;;;;;;8.57;6.78;;;5.90;99.90;;;;;;5034247;28;20026;-73
2021/11/03 04:16:03;;;;;;;8.38;7.20;;;5.60;99.90;;;;;;5035746;28;20392;-72
2021/11/03 04:18:28;;;;;;;8.38;6.90;;;5.90;99.90;;;;;;5035974;28;20022;-73
2021/11/03 04:20:56;;;;;;;8.07;6.65;;;6.00;99.90;;;;;;5023699;28;20030;-74
2021/11/03 04:23:21;;;;;;;8.45;6.72;;;5.90;99.90;;;;;;5027084;28;20026;-74
2021/11/03 04:25:48;;;;;;;7.90;6.93;;;6.00;99.90;;;;;;5025914;28;20033;-74
2021/11/03 04:28:14;;;;;;;8.90;7.15;;;6.00;99.90;;;;;;5021761;28;20029;-74
2021/11/03 04:30:41;;;;;;;8.80;7.50;;;6.00;99.90;;;;;;5033431;28;20057;-73
2021/11/03 04:33:07;;;;;;;8.43;7.63;;;6.20;99.90;;;;;;5021323;28;20613;-73
2021/11/03 04:35:33;;;;;;;8.18;7.32;;;6.10;99.90;;;;;;5033126;28;20049;-73
2021/11/03 04:37:59;;;;;;;9.68;7.90;;;6.00;99.90;;;;;;5019234;28;20031;-74
2021/11/03 04:40:27;;;;;;;9.80;7.18;;;6.00;99.90;;;;;;5034209;28;20108;-74
2021/11/03 04:42:53;;;;;;;8.68;7.78;;;6.10;99.90;;;;;;5034258;28;20407;-74
2021/11/03 04:45:20;;;;;;;8.80;7.90;;;6.10;99.90;;;;;;5021166;28;20018;-74
2021/11/03 04:47:45;;;;;;;8.70;7.80;;;6.10;99.90;;;;;;5021985;28;20021;-74
2021/11/03 04:50:19;;;;;;;9.27;7.60;;;6.10;99.90;;;;;;5034673;28;20396;-74
2021/11/03 04:52:44;;;;;;;8.48;7.50;;;6.10;99.90;;;;;;5020743;28;20054;-74
2021/11/03 04:55:11;;;;;;;10.68;8.02;;;6.20;99.90;;;;;;5021386;28;20022;-75
2021/11/03 04:57:36;;;;;;;9.45;8.00;;;6.10;99.90;;;;;;5026209;28;20117;-75
2021/11/03 05:00:06;;;;;;;12.23;9.40;;;6.10;99.90;;;;;;5014163;28;20029;-75
2021/11/03 05:02:32;;;;;;;9.15;8.25;;;6.10;99.90;;;;;;5025969;28;20040;-74
2021/11/03 05:04:58;;;;;;;9.88;8.88;;;6.00;99.90;;;;;;5026593;28;20022;-73
2021/11/03 05:07:23;;;;;;;9.85;8.85;;;6.10;99.90;;;;;;5052219;28;20037;-74
2021/11/03 05:09:49;;;;;;;11.85;10.57;;;6.00;99.90;;;;;;5033488;28;20030;-74
2021/11/03 05:12:14;;;;;;;14.15;11.52;;;5.90;99.90;;;;;;5020412;28;20029;-74
2021/11/03 05:14:40;;;;;;;12.80;11.23;;;5.90;99.90;;;;;;5055897;28;20120;-76
2021/11/03 05:17:06;;;;;;;15.20;11.00;;;5.90;99.90;;;;;;5032219;28;20033;-75
2021/11/03 05:19:32;;;;;;;11.02;9.63;;;6.00;99.90;;;;;;5033597;28;20112;-73
2021/11/03 05:21:59;;;;;;;11.43;9.60;;;6.00;99.90;;;;;;5018856;28;20471;-73
2021/11/03 05:24:24;;;;;;;10.38;9.25;;;5.90;99.90;;;;;;5020022;28;20595;-74
2021/11/03 05:26:50;;;;;;;11.50;9.23;;;5.90;99.90;;;;;;5030334;28;20056;-75
2021/11/03 05:29:17;;;;;;;9.18;8.20;;;5.90;99.90;;;;;;5031461;28;20040;-74
2021/11/03 05:31:43;;;;;;;12.48;9.60;;;5.90;99.90;;;;;;5032966;28;20428;-75
2021/11/03 05:34:09;;;;;;;10.15;8.70;;;5.80;99.90;;;;;;5031736;28;20064;-76
2021/11/03 05:36:34;;;;;;;9.80;8.77;;;5.80;99.90;;;;;;5024665;28;20025;-74
2021/11/03 05:39:05;;;;;;;15.07;9.25;;;5.80;99.90;;;;;;5027381;28;20033;-75
2021/11/03 05:41:30;;;;;;;12.25;9.30;;;5.90;99.90;;;;;;5034002;28;20033;-75
2021/11/03 05:43:58;;;;;;;9.73;7.88;;;5.80;99.90;;;;;;5032560;28;20764;-75
2021/11/03 05:46:30;;;;;;;8.40;7.47;;;5.80;99.90;;;;;;5025697;28;20029;-75
2021/11/03 05:48:58;;;;;;;9.68;8.20;;;5.90;99.90;;;;;;5026139;28;20082;-75
2021/11/03 05:51:24;;;;;;;9.52;8.23;;;5.80;99.90;;;;;;5021121;28;20056;-75
2021/11/03 05:53:49;;;;;;;12.15;9.32;;;5.90;99.90;;;;;;5018022;28;20057;-76
2021/11/03 05:56:15;;;;;;;9.60;8.60;;;5.90;99.90;;;;;;5023176;28;20064;-76
2021/11/03 05:58:41;;;;;;;12.35;9.98;;;5.90;99.90;;;;;;5024886;28;20091;-76
2021/11/03 06:01:07;;;;;;;10.77;9.32;;;5.80;99.90;;;;;;5019322;28;20029;-76
2021/11/03 06:03:33;;;;;;;10.15;8.85;;;5.90;99.90;;;;;;5019094;28;20080;-75
2021/11/03 06:05:58;;;;;;;11.77;9.55;;;5.90;99.90;;;;;;5024726;28;20022;-75
2021/11/03 06:08:24;;;;;;;14.68;10.43;;;5.90;99.90;;;;;;5026181;28;20071;-74
2021/11/03 06:10:52;;;;;;;9.65;8.63;;;6.00;99.90;;;;;;5019902;28;20590;-76
2021/11/03 06:13:20;;;;;;;12.63;11.05;;;6.00;99.90;;;;;;5017952;28;20057;-74
2021/11/03 06:15:46;;;;;;;14.10;11.70;;;6.00;99.90;;;;;;5022994;28;20045;-74
2021/11/03 06:18:12;;;;;;;15.02;11.55;;;5.90;99.90;;;;;;5024505;28;20037;-74
2021/11/03 06:20:38;;;;;;;13.15;11.73;;;5.90;99.90;;;;;;5020539;28;20021;-75
2021/11/03 06:23:04;;;;;;;16.75;12.20;;;5.90;99.90;;;;;;5030388;28;20088;-75
2021/11/03 06:25:30;;;;;;;15.18;11.20;;;5.80;99.90;;;;;;5012315;28;20029;-76
2021/11/03 06:27:58;;;;;;;13.40;10.95;;;5.70;99.90;;;;;;5025475;28;20049;-75
2021/11/03 06:30:27;;;;;;;15.20;11.48;;;5.70;99.90;;;;;;5019810;28;20028;-75
2021/11/03 06:32:53;;;;;;;14.20;10.25;;;5.70;99.90;;;;;;5017909;28;20451;-74
2021/11/03 06:35:19;;;;;;;15.85;12.13;;;5.80;99.90;;;;;;5023564;28;20030;-75
2021/11/03 06:37:45;;;;;;;16.05;12.20;;;5.80;99.90;;;;;;5024191;28;20040;-74
2021/11/03 06:40:13;;;;;;;12.95;10.65;;;5.80;99.90;;;;;;5028297;28;20112;-75
2021/11/03 06:42:39;;;;;;;11.38;9.63;;;5.80;99.90;;;;;;5028064;28;20030;-74
2021/11/03 06:45:07;;;;;;;11.20;9.88;;;5.80;99.90;;;;;;5021136;28;20026;-71
2021/11/03 06:47:34;;;;;;;10.48;9.32;;;5.80;99.90;;;;;;5014550;28;20490;-73
2021/11/03 06:50:00;;;;;;;12.07;9.57;;;5.90;99.90;;;;;;5021692;28;20028;-74
2021/11/03 06:52:27;;;;;;;11.40;9.13;;;5.90;99.90;;;;;;5027718;28;20396;-74
2021/11/03 06:54:53;;;;;;;10.77;8.88;;;6.00;99.90;;;;;;5021618;28;20032;-74
2021/11/03 06:57:18;;;;;;;10.73;9.20;;;6.10;99.90;;;;;;5018455;28;20554;-74
2021/11/03 06:59:44;;;;;;;11.35;9.80;;;6.10;99.90;;;;;;5020915;28;20052;-74
2021/11/03 07:02:14;;;;;;;10.52;8.68;;;6.10;99.90;;;;;;5023602;28;20068;-74
2021/11/03 07:04:40;;;;;;;7.40;6.38;;;6.10;99.90;;;;;;5022039;28;20018;-74
2021/11/03 07:07:05;;;;;;;6.15;5.55;;;6.20;99.90;;;;;;5017152;28;20018;-74
2021/11/03 07:09:31;;;;;;;7.18;6.10;;;6.30;99.90;;;;;;5020283;28;20042;-74
2021/11/03 07:11:56;;;;;;;6.97;6.07;;;6.20;99.90;;;;;;5025255;28;20030;-73
2021/11/03 07:14:22;;;;;;;6.47;5.88;;;6.20;99.90;;;;;;5022853;28;20035;-74
2021/11/03 07:16:48;;;;;;;7.25;6.57;;;6.20;99.90;;;;;;5018569;28;20029;-74
2021/11/03 07:19:13;;;;;;;7.55;6.85;;;6.20;99.90;;;;;;5031561;28;20072;-75
2021/11/03 07:21:39;;;;;;;8.85;8.05;;;6.10;99.90;;;;;;5017907;28;20053;-74
2021/11/03 07:24:05;;;;;;;8.80;8.00;;;6.10;99.90;;;;;;5019276;28;20029;-72
2021/11/03 07:26:30;;;;;;;10.82;8.73;;;6.10;99.90;;;;;;5029447;28;20021;-74
2021/11/03 07:28:56;;;;;;;8.73;7.82;;;6.20;99.90;;;;;;5024455;28;20038;-74
2021/11/03 07:31:22;;;;;;;8.40;7.38;;;6.30;99.90;;;;;;5028856;28;20030;-74
2021/11/03 07:33:47;;;;;;;8.40;7.55;;;6.30;99.90;;;;;;5026175;28;20048;-73
2021/11/03 07:36:16;;;;;;;9.00;8.20;;;6.40;99.90;;;;;;5030536;28;20022;-73
2021/11/03 07:38:42;;;;;;;9.30;7.60;;;6.50;99.90;;;;;;5026075;28;20039;-73
2021/11/03 07:41:08;;;;;;;8.32;7.25;;;6.50;99.90;;;;;;5047350;28;20116;-73
2021/11/03 07:43:34;;;;;;;9.45;7.55;;;6.60;99.90;;;;;;5024391;28;20087;-73
2021/11/03 07:46:00;;;;;;;8.52;7.53;;;6.60;99.90;;;;;;5027502;28;20037;-74
2021/11/03 07:48:27;;;;;;;8.27;7.47;;;6.70;99.90;;;;;;5025794;28;20029;-74
2021/11/03 07:50:57;;;;;;;8.68;7.78;;;6.70;99.90;;;;;;5026648;28;20055;-74
2021/11/03 07:53:23;;;;;;;10.82;8.85;;;6.80;99.90;;;;;;5022780;28;20032;-74
2021/11/03 07:55:53;;;;;;;9.18;8.30;;;6.80;99.90;;;;;;5028624;28;20026;-74
2021/11/03 07:58:22;;;;;;;9.13;8.15;;;6.80;99.90;;;;;;5026686;28;20119;-74
2021/11/03 08:00:49;;;;;;;8.90;7.43;;;7.00;99.90;;;;;;5020266;28;20029;-74
2021/11/03 08:03:15;;;;;;;9.70;8.10;;;7.00;99.90;;;;;;5021388;28;20472;-74
2021/11/03 08:05:41;;;;;;;8.63;7.70;;;7.00;99.90;;;;;;5028039;28;20036;-76
2021/11/03 08:08:12;;;;;;;11.50;8.95;;;7.10;99.90;;;;;;5027001;28;20029;-74
2021/11/03 08:10:43;;;;;;;11.30;9.15;;;7.00;99.90;;;;;;5021161;28;20368;-74
2021/11/03 08:13:14;;;;;;;11.38;9.48;;;7.10;99.90;;;;;;5020309;28;20030;-73
2021/11/03 08:15:41;;;;;;;11.82;9.95;;;7.10;99.90;;;;;;5030556;28;20029;-74
2021/11/03 08:18:07;;;;;;;12.15;9.32;;;7.10;99.90;;;;;;5033427;28;20117;-75
2021/11/03 08:20:35;;;;;;;11.15;9.57;;;7.10;99.90;;;;;;5022278;28;20045;-77
2021/11/03 08:23:01;;;;;;;12.40;10.13;;;7.20;99.90;;;;;;5019845;28;20465;-74
2021/11/03 08:25:27;;;;;;;12.88;9.98;;;7.30;99.90;;;;;;5034437;28;20061;-74
2021/11/03 08:27:53;;;;;;;12.32;10.73;;;7.50;99.90;;;;;;5025087;28;20087;-73
2021/11/03 08:30:20;;;;;;;10.80;9.43;;;7.60;99.90;;;;;;5016567;28;20423;-73
2021/11/03 08:32:51;;;;;;;13.48;9.57;;;7.70;99.90;;;;;;5015632;28;20418;-75
2021/11/03 08:35:19;;;;;;;11.20;9.02;;;7.80;99.90;;;;;;5024715;28;20117;-75
2021/11/03 08:37:47;;;;;;;10.88;8.40;;;7.80;99.90;;;;;;5026593;28;20376;-74
2021/11/03 08:40:15;;;;;;;11.63;8.70;;;7.70;99.90;;;;;;5028740;28;20040;-75
2021/11/03 08:42:41;;;;;;;10.15;7.88;;;7.80;99.90;;;;;;5030376;28;20041;-77
2021/11/03 08:45:09;;;;;;;8.73;7.70;;;7.80;99.90;;;;;;5023827;28;20026;-75
2021/11/03 08:47:36;;;;;;;11.77;8.98;;;7.80;99.90;;;;;;5015692;28;20030;-75
2021/11/03 08:50:04;;;;;;;11.63;9.75;;;7.70;99.90;;;;;;5023971;28;20511;-75
2021/11/03 08:52:29;;;;;;;14.65;9.80;;;7.60;99.90;;;;;;5020578;28;20034;-75
2021/11/03 08:54:55;;;;;;;12.63;10.00;;;7.60;99.90;;;;;;5033964;28;20577;-75
2021/11/03 08:57:23;;;;;;;14.13;10.38;;;7.60;99.90;;;;;;5028510;28;20026;-75
2021/11/03 08:59:49;;;;;;;12.05;10.30;;;7.70;99.90;;;;;;5025065;28;20021;-74
2021/11/03 09:02:14;;;;;;;15.32;11.80;;;7.80;99.90;;;;;;5019165;28;20029;-76
2021/11/03 09:04:41;;;;;;;13.70;10.35;;;7.80;99.90;;;;;;5022820;28;20420;-76
2021/11/03 09:07:13;;;;;;;14.52;11.13;;;7.90;99.90;;;;;;5027178;28;20026;-76
2021/11/03 09:09:45;;;;;;;13.85;10.27;;;8.10;99.90;;;;;;5025876;28;20064;-76
2021/11/03 09:12:11;;;;;;;11.85;10.05;;;8.20;99.90;;;;;;5019989;28;20105;-76
2021/11/03 09:14:36;;;;;;;14.18;10.52;;;8.30;99.90;;;;;;5032136;28;20136;-76
2021/11/03 09:17:03;;;;;;;15.82;11.07;;;8.30;99.90;;;;;;5019180;28;20037;-76
2021/11/03 09:19:29;;;;;;;13.10;10.20;;;8.20;99.90;;;;;;5020557;28;20030;-76
2021/11/03 09:21:54;;;;;;;13.50;11.05;;;8.20;99.90;;;;;;5026876;28;20029;-76
2021/11/03 09:24:20;;;;;;;14.60;11.35;;;8.20;99.90;;;;;;5026307;28;20027;-76
2021/11/03 09:26:46;;;;;;;14.35;11.70;;;8.20;99.90;;;;;;5019803;28;20438;-76
2021/11/03 09:29:12;;;;;;;14.45;11.05;;;8.30;99.90;;;;;;5033145;28;20476;-76
2021/11/03 09:31:39;;;;;;;15.07;12.07;;;8.20;99.90;;;;;;5027597;28;20484;-76
2021/11/03 09:34:05;;;;;;;14.43;10.88;;;8.30;99.90;;;;;;5025910;28;20045;-75
2021/11/03 09:36:32;;;;;;;14.88;11.93;;;8.40;99.90;;;;;;5051554;28;20023;-76
2021/11/03 09:38:58;;;;;;;14.73;12.23;;;8.50;99.90;;;;;;5055848;28;20025;-76
2021/11/03 09:41:51;;;;;;;13.93;11.45;;;8.60;99.90;;;;;;5032726;28;20080;-76
2021/11/03 09:44:24;;;;;;;16.80;12.23;;;8.50;99.90;;;;;;5018117;28;20025;-77
2021/11/03 09:47:19;;;;;;;16.25;12.20;;;8.50;99.90;;;;;;5021503;28;20089;-75
2021/11/03 09:50:19;;;;;;;14.70;11.43;;;8.60;99.90;;;;;;5021571;28;20014;-76
2021/11/03 09:52:52;;;;;;;18.33;10.60;;;8.60;99.90;;;;;;5003921;28;20033;-76
2021/11/03 09:55:22;;;;;;;15.52;10.13;;;8.60;99.90;;;;;;5019662;28;20353;-76
2021/11/03 09:58:13;;;;;;;13.63;9.48;;;8.70;99.90;;;;;;5024282;28;20021;-76
2021/11/03 10:00:55;;;;;;;11.40;8.98;;;8.70;99.90;;;;;;5031505;28;20028;-76
2021/11/03 10:03:39;;;;;;;10.63;8.60;;;8.70;99.90;;;;;;5019259;28;20547;-76
2021/11/03 10:06:07;;;;;;;10.05;8.15;;;8.70;99.90;;;;;;5022764;28;20037;-73
2021/11/03 10:08:40;;;;;;;10.85;8.50;;;8.70;99.90;;;;;;5024758;28;20476;-76
2021/11/03 10:11:27;;;;;;;13.43;8.80;;;8.80;99.90;;;;;;5011732;28;20049;-76
2021/11/03 10:13:58;;;;;;;;;;;8.80;99.90;;;;;;5020631;28;20036;-75
2021/11/03 10:16:31;;;;;;;9.88;8.73;;;8.90;99.90;;;;;;5019290;28;20279;-75
2021/11/03 10:19:09;;;;;;;11.85;8.65;;;8.90;99.90;;;;;;5021902;28;20030;-76
2021/11/03 10:22:04;;;;;;;10.43;8.50;;;8.80;99.90;;;;;;5024337;28;20034;-75
2021/11/03 10:24:41;;;;;;;10.73;9.43;;;8.70;99.90;;;;;;5015645;28;20115;-75
2021/11/03 10:27:22;;;;;;;10.95;9.70;;;8.70;99.90;;;;;;5021125;28;20021;-75
2021/11/03 10:29:52;;;;;;;12.63;9.18;;;8.60;99.90;;;;;;5025870;28;20033;-76
2021/11/03 10:32:30;;;;;;;11.32;9.30;;;8.70;99.90;;;;;;5024822;28;20025;-75
2021/11/03 10:35:32;;;;;;;13.75;9.70;;;8.70;99.90;;;;;;5019743;28;20017;-75
2021/11/03 10:38:21;;;;;;;11.93;9.27;;;8.70;99.90;;;;;;5018847;28;20018;-75
2021/11/03 10:41:01;;;;;;;13.02;9.30;;;8.80;99.90;;;;;;5013486;28;20037;-75
2021/11/03 10:43:42;;;;;;;11.18;9.10;;;8.80;99.90;;;;;;5021376;28;20030;-75
2021/11/03 10:46:31;;;;;;;11.25;8.85;;;8.60;99.90;;;;;;5024657;28;20022;-75
2021/11/03 10:49:21;;;;;;;10.10;8.65;;;8.60;99.90;;;;;;5012300;28;20574;-75
2021/11/03 10:51:47;;;;;;;10.90;8.55;;;8.70;99.90;;;;;;5023036;28;20172;-75
2021/11/03 10:54:20;;;;;;;11.32;8.38;;;8.80;99.90;;;;;;5018929;28;20635;-76
2021/11/03 10:56:57;;;;;;;13.80;8.68;;;8.80;99.90;;;;;;5019980;28;20420;-75
2021/11/03 10:59:30;;;;;;;12.45;8.50;;;8.90;99.90;;;;;;5019086;28;20053;-75
2021/11/03 11:02:18;;;;;;;9.85;8.23;;;8.90;99.90;;;;;;5017886;28;20044;-76
2021/11/03 11:04:43;;;;;;;12.18;8.77;;;8.90;99.90;;;;;;5020578;28;20053;-75
2021/11/03 11:07:35;;;;;;;8.40;7.55;;;9.00;99.90;;;;;;5016451;28;20064;-75
2021/11/03 11:10:03;;;;;;;8.48;7.68;;;9.20;99.90;;;;;;5017354;28;20488;-75
2021/11/03 11:12:33;;;;;;;10.70;7.70;;;9.40;99.90;;;;;;5031636;28;20435;-76
2021/11/03 11:15:18;;;;;;;10.20;7.43;;;9.50;99.90;;;;;;5031490;28;20093;-76
2021/11/03 11:18:11;;;;;;;8.27;6.82;;;9.40;99.90;;;;;;5028332;28;20028;-76
2021/11/03 11:20:42;;;;;;;7.50;6.70;;;9.40;99.90;;;;;;5020135;28;20021;-76
2021/11/03 11:23:22;;;;;;;7.93;6.60;;;9.50;99.90;;;;;;5018354;28;20173;-76
2021/11/03 11:26:10;;;;;;;8.30;6.68;;;9.60;99.90;;;;;;5022593;28;20487;-75
2021/11/03 11:28:45;;;;;;;6.88;6.18;;;9.60;99.90;;;;;;5018787;28;20037;-76
2021/11/03 11:31:35;;;;;;;7.57;6.57;;;9.60;99.90;;;;;;5018232;28;20014;-75
2021/11/03 11:34:34;;;;;;;7.22;6.40;;;9.60;99.90;;;;;;5029788;28;20113;-74
2021/11/03 11:37:13;;;;;;;7.60;6.22;;;9.50;99.90;;;;;;5016275;28;20030;-75
2021/11/03 11:39:55;;;;;;;7.65;5.82;;;9.70;99.90;;;;;;5022960;28;20030;-74
2021/11/03 11:42:41;;;;;;;8.60;5.55;;;9.80;99.90;;;;;;5030313;28;20065;-76
2021/11/03 11:45:16;;;;;;;8.95;6.03;;;10.00;99.90;;;;;;5020926;28;20029;-75
2021/11/03 11:47:55;;;;;;;5.07;4.57;;;10.00;99.90;;;;;;5018248;28;20108;-76
2021/11/03 11:50:26;;;;;;;5.70;4.50;;;9.90;99.90;;;;;;5018069;28;20388;-75
2021/11/03 11:52:54;;;;;;;6.25;4.57;;;9.80;99.90;;;;;;5023808;28;20030;-75
2021/11/03 11:55:23;;;;;;;5.10;4.60;;;9.80;99.90;;;;;;5025000;28;20044;-75
2021/11/03 11:57:58;;;;;;;5.45;4.30;;;9.90;99.90;;;;;;5010059;28;20026;-74
2021/11/03 12:00:25;;;;;;;7.47;4.68;;;9.90;99.90;;;;;;5025915;28;20587;-75
2021/11/03 12:02:51;;;;;;;4.75;4.00;;;9.90;99.90;;;;;;5020817;28;20036;-75
2021/11/03 12:05:28;;;;;;;5.00;4.10;;;9.90;99.90;;;;;;5023348;28;20120;-75
2021/11/03 12:08:18;;;;;;;5.32;4.32;;;9.80;99.90;;;;;;5022022;28;20103;-75
2021/11/03 12:11:02;;;;;;;6.13;5.07;;;9.80;99.90;;;;;;5017347;28;20017;-74
2021/11/03 12:13:30;;;;;;;5.88;5.05;;;9.90;99.90;;;;;;5017875;28;20029;-75
2021/11/03 12:15:55;;;;;;;5.50;4.88;;;9.80;99.90;;;;;;5023677;28;20033;-75
2021/11/03 12:18:27;;;;;;;7.43;4.97;;;9.70;99.90;;;;;;5016591;28;20518;-75
2021/11/03 12:21:15;;;;;;;7.47;5.60;;;9.70;99.90;;;;;;5023945;28;20514;-75
2021/11/03 12:23:56;;;;;;;7.05;5.35;;;9.70;99.90;;;;;;5014628;28;20148;-75
2021/11/03 12:26:25;;;;;;;7.40;5.78;;;9.80;99.90;;;;;;5020203;28;20029;-75
2021/11/03 12:29:18;;;;;;;11.98;5.70;;;10.00;99.90;;;;;;5034211;28;20168;-75
2021/11/03 12:31:47;;;;;;;7.30;5.93;;;10.10;99.90;;;;;;5012640;28;20025;-75
2021/11/03 12:34:21;;;;;;;8.27;5.65;;;10.20;99.90;;;;;;5033807;28;20021;-75
2021/11/03 12:36:47;;;;;;;8.15;6.07;;;10.30;99.90;;;;;;5021823;28;20030;-75
2021/11/03 12:39:29;;;;;;;8.38;6.20;;;10.20;99.90;;;;;;5027769;28;20025;-75
2021/11/03 12:41:57;;;;;;;6.28;5.68;;;10.20;99.90;;;;;;5043213;28;20029;-75
2021/11/03 12:44:35;;;;;;;6.88;5.68;;;10.10;99.90;;;;;;5019587;28;20018;-75
2021/11/03 12:47:01;;;;;;;6.10;5.50;;;10.10;99.90;;;;;;5020244;28;20049;-75
2021/11/03 12:49:28;;;;;;;6.28;5.60;;;10.10;99.90;;;;;;5026238;28;20380;-75
2021/11/03 12:52:00;;;;;;;8.27;5.65;;;10.00;99.90;;;;;;5025330;28;20091;-75
2021/11/03 12:54:26;;;;;;;6.97;5.68;;;10.00;99.90;;;;;;5021055;28;20491;-75
2021/11/03 12:57:19;;;;;;;6.93;5.32;;;10.00;99.90;;;;;;5020686;28;20033;-75
2021/11/03 13:00:12;;;;;;;6.90;5.15;;;10.00;99.90;;;;;;5021802;28;20037;-75
2021/11/03 13:02:45;;;;;;;7.03;4.93;;;10.10;99.90;;;;;;5022048;28;20116;-75